^^
Meteo Knjazevac Station Historical Data
Daily Summary for January 29, 2021 Units:  Metric    English   Both
Daily Weekly Monthly Yearly Custom
  High: Low: Average:
Temperature: 20.8 °C 14.4 °C 16.7 °C
Dew Point: 16.5 °C 13.8 °C 14.7 °C
Humidity: 99% 75% 89%
Wind Speed: 16.1km/h 0km/h 6.1km/h
Wind Gust: 24.1km/h - -
Wind- - SW
Pressure: 1014.1 hPa 1012.8 hPa -
Precipitation: 5.08 mm    
Historical Graphs
 
 
Tabular Data for January 29, 2021
Time Temperature Dew Point Pressure Wind Wind Speed Wind Gust Humidity Rainfall Rate (Hourly) solar Conditions
00:00 16.8 °C 14.1 °C 1013.4 hPa SW 4.8 km/h 14.5 km/h 84% 0 mm 0 W/m2
00:10 16.8 °C 14.1 °C 1013.1 hPa SSW 1.6 km/h 9.7 km/h 84% 0 mm 0 W/m2
00:20 16.6 °C 13.9 °C 1013.1 hPa SSW 4.8 km/h 8 km/h 84% 0 mm 0 W/m2
00:30 16.5 °C 13.9 °C 1013.4 hPa SW 3.2 km/h 8 km/h 85% 0 mm 0 W/m2
00:40 16.4 °C 13.9 °C 1013.4 hPa SW 4.8 km/h 9.7 km/h 85% 0 mm 0 W/m2
00:50 16.3 °C 14 °C 1013.4 hPa SW 8 km/h 16.1 km/h 86% 0 mm 0 W/m2
01:00 16.3 °C 13.9 °C 1013.4 hPa SW 8 km/h 12.9 km/h 86% 0 mm 0 W/m2
01:10 16.2 °C 13.8 °C 1013.4 hPa SW 9.7 km/h 14.5 km/h 86% 0 mm 0 W/m2
01:20 16.1 °C 13.8 °C 1013.4 hPa SW 3.2 km/h 11.3 km/h 86% 0 mm 0 W/m2
01:30 16.1 °C 13.8 °C 1013.4 hPa West 1.6 km/h 6.4 km/h 86% 0 mm 0 W/m2
01:40 16.1 °C 13.8 °C 1013.4 hPa SW 1.6 km/h 3.2 km/h 86% 0 mm 0 W/m2
01:50 16.1 °C 13.8 °C 1013.4 hPa SW 4.8 km/h 8 km/h 86% 0 mm 0 W/m2
02:00 16.1 °C 13.8 °C 1013.4 hPa SW 3.2 km/h 8 km/h 86% 0 mm 0 W/m2
02:10 16.1 °C 13.8 °C 1013.4 hPa SW 3.2 km/h 8 km/h 86% 0 mm 0 W/m2
02:20 16.1 °C 13.8 °C 1013.4 hPa SW 4.8 km/h 9.7 km/h 86% 0 mm 0 W/m2
02:30 16.1 °C 13.8 °C 1013.4 hPa SW 3.2 km/h 6.4 km/h 86% 0 mm 0 W/m2
02:40 16.2 °C 13.8 °C 1013.4 hPa SW 4.8 km/h 8 km/h 86% 0 mm 0 W/m2
02:50 16.1 °C 14.4 °C 1013.4 hPa SW 3.2 km/h 9.7 km/h 90% 2.03 mm 0 W/m2
03:00 15.8 °C 14.6 °C 1013.8 hPa SSW 4.8 km/h 9.7 km/h 93% 1.78 mm 0 W/m2
03:10 15.6 °C 14.6 °C 1013.4 hPa ESE 1.6 km/h 9.7 km/h 94% 0 mm 0 W/m2
03:20 15.5 °C 14.7 °C 1013.4 hPa ENE 4.8 km/h 8 km/h 95% 1.02 mm 0 W/m2
03:30 15.5 °C 14.9 °C 1013.4 hPa ENE 3.2 km/h 6.4 km/h 96% 0.76 mm 0 W/m2
03:40 15.5 °C 14.9 °C 1013.4 hPa ENE 3.2 km/h 4.8 km/h 96% 0 mm 0 W/m2
03:50 15.5 °C 14.9 °C 1013.4 hPa Calm   3.2 km/h 96% 0 mm 0 W/m2
04:00 15.4 °C 14.8 °C 1013.4 hPa SSE 1.6 km/h 4.8 km/h 96% 0 mm 0 W/m2
04:10 15.4 °C 15.1 °C 1013.4 hPa SSW 3.2 km/h 8 km/h 98% 0 mm 0 W/m2
04:20 15.3 °C 14.7 °C 1013.1 hPa ENE 1.6 km/h 3.2 km/h 96% 0 mm 0 W/m2
04:30 15.4 °C 14.9 °C 1013.4 hPa South 3.2 km/h 4.8 km/h 97% 0 mm 0 W/m2
04:40 15.3 °C 14.7 °C 1013.1 hPa ESE 1.6 km/h 4.8 km/h 96% 0 mm 0 W/m2
04:50 15.3 °C 15 °C 1013.1 hPa SE 3.2 km/h 4.8 km/h 98% 0 mm 0 W/m2
05:00 15.2 °C 14.6 °C 1013.1 hPa South 3.2 km/h 6.4 km/h 96% 0 mm 0 W/m2
05:10 15.1 °C 14.4 °C 1012.8 hPa SSW 3.2 km/h 4.8 km/h 96% 0 mm 0 W/m2
05:20 15 °C 14.4 °C 1012.8 hPa SW 3.2 km/h 6.4 km/h 96% 0 mm 0 W/m2
05:30 14.8 °C 14.5 °C 1013.1 hPa SW 4.8 km/h 8 km/h 98% 0 mm 0 W/m2
05:40 14.7 °C 14.4 °C 1013.1 hPa SSW 8 km/h 11.3 km/h 98% 0 mm 0 W/m2
05:50 14.6 °C 14.3 °C 1013.4 hPa SW 9.7 km/h 12.9 km/h 98% 0 mm 0 W/m2
06:00 14.5 °C 14.2 °C 1013.4 hPa SSW 4.8 km/h 12.9 km/h 98% 0 mm 5 W/m2
06:10 14.5 °C 14.2 °C 1013.4 hPa SSW 4.8 km/h 9.7 km/h 98% 0 mm 9 W/m2
06:20 14.4 °C 14.1 °C 1013.4 hPa SSW 4.8 km/h 9.7 km/h 98% 0 mm 18 W/m2
06:30 14.5 °C 14.2 °C 1013.4 hPa SSW 4.8 km/h 8 km/h 98% 0 mm 28 W/m2
06:40 14.6 °C 14.4 °C 1013.4 hPa SSW 4.8 km/h 8 km/h 99% 0 mm 25 W/m2
06:50 14.6 °C 14.4 °C 1013.8 hPa SSW 4.8 km/h 9.7 km/h 99% 0 mm 27 W/m2
07:00 14.7 °C 14.6 °C 1013.8 hPa SSW 8 km/h 9.7 km/h 99% 0 mm 29 W/m2
07:10 14.7 °C 14.4 °C 1013.8 hPa SW 8 km/h 11.3 km/h 98% 0 mm 81 W/m2
07:20 14.8 °C 14.6 °C 1013.8 hPa SSW 3.2 km/h 11.3 km/h 98% 0 mm 94 W/m2
07:30 15.1 °C 14.4 °C 1013.8 hPa SW 4.8 km/h 11.3 km/h 96% 0 mm 93 W/m2
07:40 15.1 °C 14.4 °C 1013.8 hPa SW 4.8 km/h 9.7 km/h 96% 0 mm 98 W/m2
07:50 15.2 °C 14.6 °C 1013.8 hPa SW 1.6 km/h 8 km/h 96% 0 mm 117 W/m2
08:00 15.3 °C 14.7 °C 1013.8 hPa SW 3.2 km/h 4.8 km/h 96% 0 mm 137 W/m2
08:10 15.5 °C 14.9 °C 1013.8 hPa SW 1.6 km/h 4.8 km/h 96% 0 mm 102 W/m2
08:20 15.6 °C 14.8 °C 1013.8 hPa South 3.2 km/h 8 km/h 95% 0 mm 115 W/m2
08:30 15.7 °C 14.9 °C 1013.8 hPa SW 3.2 km/h 6.4 km/h 95% 0 mm 78 W/m2
08:40 15.7 °C 14.9 °C 1013.8 hPa SW 8 km/h 9.7 km/h 95% 0 mm 134 W/m2
08:50 15.7 °C 14.7 °C 1013.8 hPa SW 4.8 km/h 11.3 km/h 94% 0 mm 154 W/m2
09:00 15.7 °C 14.9 °C 1014.1 hPa SW 3.2 km/h 12.9 km/h 95% 0 mm 115 W/m2
09:10 15.7 °C 14.7 °C 1014.1 hPa SW 8 km/h 12.9 km/h 94% 0 mm 70 W/m2
09:20 15.6 °C 14.6 °C 1014.1 hPa SW 4.8 km/h 12.9 km/h 94% 0 mm 57 W/m2
09:30 15.6 °C 14.6 °C 1014.1 hPa SW 8 km/h 11.3 km/h 94% 0 mm 86 W/m2
09:40 15.5 °C 14.6 °C 1014.1 hPa SW 11.3 km/h 12.9 km/h 94% 0 mm 124 W/m2
09:50 15.3 °C 14.4 °C 1014.1 hPa SW 8 km/h 17.7 km/h 94% 0 mm 95 W/m2
10:00 15.3 °C 14.3 °C 1014.1 hPa SW 4.8 km/h 11.3 km/h 94% 0 mm 128 W/m2
10:10 15.3 °C 14.5 °C 1014.1 hPa SW 3.2 km/h 9.7 km/h 95% 0 mm 103 W/m2
10:20 15.4 °C 14.4 °C 1014.1 hPa SW 8 km/h 11.3 km/h 94% 0 mm 109 W/m2
10:30 15.4 °C 14.4 °C 1014.1 hPa SW 8 km/h 11.3 km/h 94% 0 mm 135 W/m2
10:40 15.5 °C 14.6 °C 1014.1 hPa SSW 4.8 km/h 9.7 km/h 94% 0 mm 136 W/m2
10:50 15.7 °C 14.7 °C 1014.1 hPa SSW 4.8 km/h 9.7 km/h 94% 0 mm 143 W/m2
11:00 15.7 °C 14.7 °C 1014.1 hPa SW 3.2 km/h 9.7 km/h 94% 0 mm 171 W/m2
11:10 15.7 °C 14.6 °C 1014.1 hPa SW 8 km/h 12.9 km/h 93% 0 mm 218 W/m2
11:20 15.8 °C 14.7 °C 1014.1 hPa SW 4.8 km/h 12.9 km/h 93% 0 mm 208 W/m2
11:30 15.9 °C 14.4 °C 1014.1 hPa SW 8 km/h 12.9 km/h 91% 0 mm 135 W/m2
11:40 15.8 °C 14.3 °C 1014.1 hPa SW 9.7 km/h 17.7 km/h 91% 0 mm 129 W/m2
11:50 15.8 °C 14.3 °C 1014.1 hPa SW 8 km/h 12.9 km/h 91% 0 mm 181 W/m2
12:00 15.9 °C 14.2 °C 1014.1 hPa SW 8 km/h 14.5 km/h 90% 0 mm 222 W/m2
12:10 16 °C 14.3 °C 1014.1 hPa SW 8 km/h 16.1 km/h 90% 0 mm 239 W/m2
12:20 16.2 °C 14.5 °C 1013.8 hPa SSW 8 km/h 12.9 km/h 90% 0 mm 367 W/m2
12:30 16.6 °C 14.9 °C 1013.8 hPa SSW 9.7 km/h 12.9 km/h 90% 0 mm 405 W/m2
12:40 17 °C 15.2 °C 1013.8 hPa SSW 8 km/h 14.5 km/h 89% 0 mm 461 W/m2
12:50 17.4 °C 15.4 °C 1013.4 hPa SSW 8 km/h 12.9 km/h 88% 0 mm 614 W/m2
13:00 17.9 °C 15.5 °C 1013.4 hPa SW 8 km/h 14.5 km/h 86% 0 mm 506 W/m2
13:10 18.1 °C 15.3 °C 1013.4 hPa SSW 8 km/h 14.5 km/h 84% 0 mm 671 W/m2
13:20 18.4 °C 15.4 °C 1013.4 hPa SW 4.8 km/h 12.9 km/h 83% 0 mm 633 W/m2
13:30 18.8 °C 15.8 °C 1013.4 hPa SW 4.8 km/h 9.7 km/h 83% 0 mm 659 W/m2
13:40 19.1 °C 15.8 °C 1013.4 hPa SW 8 km/h 11.3 km/h 81% 0 mm 487 W/m2
13:50 19.3 °C 15.8 °C 1013.4 hPa SSW 4.8 km/h 11.3 km/h 80% 0 mm 601 W/m2
14:00 19.5 °C 15.8 °C 1013.4 hPa SW 3.2 km/h 14.5 km/h 79% 0 mm 521 W/m2
14:10 19.6 °C 15.8 °C 1013.1 hPa WSW 3.2 km/h 12.9 km/h 79% 0 mm 349 W/m2
14:20 19.6 °C 15.7 °C 1013.1 hPa SW 1.6 km/h 9.7 km/h 78% 0 mm 404 W/m2
14:30 19.9 °C 16 °C 1012.8 hPa SW 4.8 km/h 12.9 km/h 78% 0 mm 732 W/m2
14:40 20.7 °C 16.5 °C 1012.8 hPa SW 8 km/h 19.3 km/h 77% 0 mm 713 W/m2
14:50 20.8 °C 16.2 °C 1012.8 hPa SW 4.8 km/h 16.1 km/h 75% 0 mm 432 W/m2
15:00 20.6 °C 16 °C 1012.8 hPa SW 8 km/h 14.5 km/h 75% 0 mm 240 W/m2
15:10 20.2 °C 16.1 °C 1012.8 hPa SW 8 km/h 14.5 km/h 77% 0 mm 372 W/m2
15:20 20.2 °C 16.1 °C 1012.8 hPa SW 12.9 km/h 19.3 km/h 77% 0 mm 425 W/m2
15:30 20.1 °C 15.9 °C 1012.8 hPa WSW 12.9 km/h 19.3 km/h 77% 0 mm 362 W/m2
15:40 20.1 °C 15.9 °C 1012.8 hPa SW 11.3 km/h 19.3 km/h 77% 0 mm 328 W/m2
15:50 19.8 °C 15.7 °C 1012.8 hPa SW 11.3 km/h 16.1 km/h 77% 0 mm 270 W/m2
16:00 19.7 °C 15.8 °C 1012.8 hPa SW 11.3 km/h 17.7 km/h 78% 0 mm 325 W/m2
16:10 19.6 °C 15.7 °C 1012.8 hPa SW 12.9 km/h 19.3 km/h 78% 0 mm 283 W/m2
16:20 19.5 °C 15.6 °C 1013.1 hPa SW 16.1 km/h 22.5 km/h 78% 0 mm 156 W/m2
16:30 19.3 °C 15.6 °C 1013.1 hPa SW 12.9 km/h 20.9 km/h 79% 0 mm 131 W/m2
16:40 19.1 °C 15.6 °C 1013.1 hPa SW 9.7 km/h 16.1 km/h 80% 0 mm 184 W/m2
16:50 18.9 °C 15.2 °C 1013.1 hPa SW 11.3 km/h 20.9 km/h 79% 0 mm 114 W/m2
17:00 18.7 °C 15 °C 1013.4 hPa WSW 8 km/h 16.1 km/h 79% 0 mm 99 W/m2
17:10 18.6 °C 14.9 °C 1013.4 hPa WSW 3.2 km/h 20.9 km/h 79% 0 mm 79 W/m2
17:20 18.5 °C 14.8 °C 1013.4 hPa SW 9.7 km/h 12.9 km/h 79% 0 mm 57 W/m2
17:30 18.2 °C 14.7 °C 1013.8 hPa WSW 9.7 km/h 19.3 km/h 80% 0 mm 60 W/m2
17:40 17.9 °C 14.4 °C 1013.8 hPa WSW 9.7 km/h 19.3 km/h 80% 0 mm 99 W/m2
17:50 17.7 °C 14.4 °C 1013.8 hPa WSW 8 km/h 24.1 km/h 81% 0 mm 49 W/m2
18:00 17.4 °C 14.5 °C 1013.8 hPa WSW 9.7 km/h 19.3 km/h 83% 0 mm 32 W/m2
18:10 17.3 °C 14 °C 1013.8 hPa WSW 11.3 km/h 20.9 km/h 81% 0 mm 25 W/m2
18:20 17.1 °C 14.2 °C 1013.8 hPa WSW 8 km/h 16.1 km/h 83% 0 mm 13 W/m2
Knjazevac, Serbia
Compliments of Weather Underground - 2 mb